sensor_id;sensor_type;location;lat;lon;timestamp;P1;durP1;ratioP1;P2;durP2;ratioP2
33268;SDS011;19640;50.944;5.260;2023-04-03T00:02:14;6.80;;;6.03;;
33268;SDS011;19640;50.944;5.260;2023-04-03T00:04:40;6.18;;;5.57;;
33268;SDS011;19640;50.944;5.260;2023-04-03T00:07:06;7.18;;;6.47;;
33268;SDS011;19640;50.944;5.260;2023-04-03T00:09:32;8.05;;;6.32;;
33268;SDS011;19640;50.944;5.260;2023-04-03T00:11:57;6.40;;;5.80;;
33268;SDS011;19640;50.944;5.260;2023-04-03T00:14:23;6.22;;;5.63;;
33268;SDS011;19640;50.944;5.260;2023-04-03T00:16:49;6.53;;;5.72;;
33268;SDS011;19640;50.944;5.260;2023-04-03T00:19:14;6.22;;;5.63;;
33268;SDS011;19640;50.944;5.260;2023-04-03T00:21:40;6.82;;;5.82;;
33268;SDS011;19640;50.944;5.260;2023-04-03T00:24:06;7.47;;;6.25;;
33268;SDS011;19640;50.944;5.260;2023-04-03T00:26:32;8.48;;;6.75;;
33268;SDS011;19640;50.944;5.260;2023-04-03T00:28:57;6.88;;;6.05;;
33268;SDS011;19640;50.944;5.260;2023-04-03T00:31:23;8.38;;;5.95;;
33268;SDS011;19640;50.944;5.260;2023-04-03T00:33:49;7.07;;;5.90;;
33268;SDS011;19640;50.944;5.260;2023-04-03T00:36:14;6.93;;;6.32;;
33268;SDS011;19640;50.944;5.260;2023-04-03T00:38:40;7.53;;;5.65;;
33268;SDS011;19640;50.944;5.260;2023-04-03T00:41:06;8.77;;;6.38;;
33268;SDS011;19640;50.944;5.260;2023-04-03T00:43:32;7.20;;;6.38;;
33268;SDS011;19640;50.944;5.260;2023-04-03T00:45:58;6.35;;;5.75;;
33268;SDS011;19640;50.944;5.260;2023-04-03T00:48:26;6.85;;;6.05;;
33268;SDS011;19640;50.944;5.260;2023-04-03T00:50:57;6.05;;;5.55;;
33268;SDS011;19640;50.944;5.260;2023-04-03T00:53:25;7.00;;;6.25;;
33268;SDS011;19640;50.944;5.260;2023-04-03T00:55:57;6.03;;;5.50;;
33268;SDS011;19640;50.944;5.260;2023-04-03T00:58:44;7.03;;;6.32;;
33268;SDS011;19640;50.944;5.260;2023-04-03T01:01:16;7.07;;;6.38;;
33268;SDS011;19640;50.944;5.260;2023-04-03T01:03:46;8.50;;;6.10;;
33268;SDS011;19640;50.944;5.260;2023-04-03T01:06:12;6.93;;;6.18;;
33268;SDS011;19640;50.944;5.260;2023-04-03T01:08:41;7.47;;;5.93;;
33268;SDS011;19640;50.944;5.260;2023-04-03T01:11:07;9.63;;;6.00;;
33268;SDS011;19640;50.944;5.260;2023-04-03T01:13:33;7.80;;;6.00;;
33268;SDS011;19640;50.944;5.260;2023-04-03T01:16:02;8.20;;;5.70;;
33268;SDS011;19640;50.944;5.260;2023-04-03T01:18:29;6.97;;;6.25;;
33268;SDS011;19640;50.944;5.260;2023-04-03T01:26:40;10.18;;;8.20;;
33268;SDS011;19640;50.944;5.260;2023-04-03T01:29:06;8.70;;;7.80;;
33268;SDS011;19640;50.944;5.260;2023-04-03T01:34:10;8.52;;;7.72;;
33268;SDS011;19640;50.944;5.260;2023-04-03T01:36:35;11.45;;;7.40;;
33268;SDS011;19640;50.944;5.260;2023-04-03T01:39:01;9.82;;;6.63;;
33268;SDS011;19640;50.944;5.260;2023-04-03T01:41:27;9.23;;;6.05;;
33268;SDS011;19640;50.944;5.260;2023-04-03T01:43:53;7.70;;;7.07;;
33268;SDS011;19640;50.944;5.260;2023-04-03T01:46:20;12.85;;;6.90;;
33268;SDS011;19640;50.944;5.260;2023-04-03T01:48:46;9.48;;;6.57;;
33268;SDS011;19640;50.944;5.260;2023-04-03T01:51:12;13.85;;;6.55;;
33268;SDS011;19640;50.944;5.260;2023-04-03T01:53:38;6.35;;;5.75;;
33268;SDS011;19640;50.944;5.260;2023-04-03T01:56:04;7.35;;;6.63;;
33268;SDS011;19640;50.944;5.260;2023-04-03T01:58:30;8.75;;;7.25;;
33268;SDS011;19640;50.944;5.260;2023-04-03T02:00:55;8.98;;;7.38;;
33268;SDS011;19640;50.944;5.260;2023-04-03T02:03:21;7.97;;;7.22;;
33268;SDS011;19640;50.944;5.260;2023-04-03T02:05:47;8.95;;;6.32;;
33268;SDS011;19640;50.944;5.260;2023-04-03T02:08:12;7.82;;;6.40;;
33268;SDS011;19640;50.944;5.260;2023-04-03T02:10:38;9.50;;;7.18;;
33268;SDS011;19640;50.944;5.260;2023-04-03T02:13:04;10.20;;;8.15;;
33268;SDS011;19640;50.944;5.260;2023-04-03T02:15:30;10.15;;;6.93;;
33268;SDS011;19640;50.944;5.260;2023-04-03T02:17:55;14.18;;;8.32;;
33268;SDS011;19640;50.944;5.260;2023-04-03T02:20:21;11.60;;;8.65;;
33268;SDS011;19640;50.944;5.260;2023-04-03T02:22:47;7.15;;;6.45;;
33268;SDS011;19640;50.944;5.260;2023-04-03T02:25:13;7.30;;;6.60;;
33268;SDS011;19640;50.944;5.260;2023-04-03T02:27:39;11.68;;;7.90;;
33268;SDS011;19640;50.944;5.260;2023-04-03T02:30:05;9.25;;;8.45;;
33268;SDS011;19640;50.944;5.260;2023-04-03T02:32:31;10.38;;;9.35;;
33268;SDS011;19640;50.944;5.260;2023-04-03T02:34:57;9.68;;;8.75;;
33268;SDS011;19640;50.944;5.260;2023-04-03T02:37:23;10.38;;;7.93;;
33268;SDS011;19640;50.944;5.260;2023-04-03T02:39:49;9.27;;;8.45;;
33268;SDS011;19640;50.944;5.260;2023-04-03T02:42:15;8.50;;;7.60;;
33268;SDS011;19640;50.944;5.260;2023-04-03T02:44:41;7.90;;;6.95;;
33268;SDS011;19640;50.944;5.260;2023-04-03T02:47:07;7.75;;;7.05;;
33268;SDS011;19640;50.944;5.260;2023-04-03T02:49:32;8.52;;;7.70;;
33268;SDS011;19640;50.944;5.260;2023-04-03T02:51:58;9.32;;;7.95;;
33268;SDS011;19640;50.944;5.260;2023-04-03T02:54:24;7.57;;;6.88;;
33268;SDS011;19640;50.944;5.260;2023-04-03T02:56:53;10.13;;;7.50;;
33268;SDS011;19640;50.944;5.260;2023-04-03T02:59:18;9.55;;;7.80;;
33268;SDS011;19640;50.944;5.260;2023-04-03T03:01:44;9.00;;;7.70;;
33268;SDS011;19640;50.944;5.260;2023-04-03T03:04:10;10.27;;;7.75;;
33268;SDS011;19640;50.944;5.260;2023-04-03T03:06:36;9.77;;;7.57;;
33268;SDS011;19640;50.944;5.260;2023-04-03T03:09:01;8.63;;;7.82;;
33268;SDS011;19640;50.944;5.260;2023-04-03T03:11:28;9.50;;;8.68;;
33268;SDS011;19640;50.944;5.260;2023-04-03T03:13:54;16.27;;;8.68;;
33268;SDS011;19640;50.944;5.260;2023-04-03T03:16:20;12.68;;;9.23;;
33268;SDS011;19640;50.944;5.260;2023-04-03T03:18:45;10.55;;;9.38;;
33268;SDS011;19640;50.944;5.260;2023-04-03T03:21:11;10.25;;;9.20;;
33268;SDS011;19640;50.944;5.260;2023-04-03T03:23:37;13.13;;;9.90;;
33268;SDS011;19640;50.944;5.260;2023-04-03T03:26:04;12.30;;;9.23;;
33268;SDS011;19640;50.944;5.260;2023-04-03T03:28:31;11.15;;;8.55;;
33268;SDS011;19640;50.944;5.260;2023-04-03T03:30:57;10.57;;;9.50;;
33268;SDS011;19640;50.944;5.260;2023-04-03T03:33:24;14.70;;;9.52;;
33268;SDS011;19640;50.944;5.260;2023-04-03T03:35:50;14.20;;;11.88;;
33268;SDS011;19640;50.944;5.260;2023-04-03T03:38:17;14.07;;;12.57;;
33268;SDS011;19640;50.944;5.260;2023-04-03T03:40:43;16.70;;;11.57;;
33268;SDS011;19640;50.944;5.260;2023-04-03T03:43:09;17.70;;;14.15;;
33268;SDS011;19640;50.944;5.260;2023-04-03T03:45:34;16.70;;;13.43;;
33268;SDS011;19640;50.944;5.260;2023-04-03T03:48:00;12.98;;;11.55;;
33268;SDS011;19640;50.944;5.260;2023-04-03T03:50:26;11.18;;;10.02;;
33268;SDS011;19640;50.944;5.260;2023-04-03T03:52:52;12.02;;;10.23;;
33268;SDS011;19640;50.944;5.260;2023-04-03T03:55:17;11.55;;;9.63;;
33268;SDS011;19640;50.944;5.260;2023-04-03T03:57:43;9.85;;;8.93;;
33268;SDS011;19640;50.944;5.260;2023-04-03T04:00:09;12.82;;;9.07;;
33268;SDS011;19640;50.944;5.260;2023-04-03T04:02:35;11.88;;;10.63;;
33268;SDS011;19640;50.944;5.260;2023-04-03T04:05:01;10.95;;;9.48;;
33268;SDS011;19640;50.944;5.260;2023-04-03T04:07:26;12.73;;;9.40;;
33268;SDS011;19640;50.944;5.260;2023-04-03T04:09:54;11.40;;;10.23;;
33268;SDS011;19640;50.944;5.260;2023-04-03T04:12:20;11.38;;;10.27;;
33268;SDS011;19640;50.944;5.260;2023-04-03T04:14:45;12.35;;;10.05;;
33268;SDS011;19640;50.944;5.260;2023-04-03T04:17:14;11.48;;;9.00;;
33268;SDS011;19640;50.944;5.260;2023-04-03T04:19:40;10.73;;;9.73;;
33268;SDS011;19640;50.944;5.260;2023-04-03T04:22:05;13.95;;;9.15;;
33268;SDS011;19640;50.944;5.260;2023-04-03T04:24:31;9.85;;;8.95;;
33268;SDS011;19640;50.944;5.260;2023-04-03T04:26:57;10.07;;;9.18;;
33268;SDS011;19640;50.944;5.260;2023-04-03T04:29:23;10.30;;;9.02;;
33268;SDS011;19640;50.944;5.260;2023-04-03T04:31:48;13.15;;;9.20;;
33268;SDS011;19640;50.944;5.260;2023-04-03T04:34:14;9.18;;;8.30;;
33268;SDS011;19640;50.944;5.260;2023-04-03T04:36:40;12.32;;;9.70;;
33268;SDS011;19640;50.944;5.260;2023-04-03T04:39:06;13.18;;;10.30;;
33268;SDS011;19640;50.944;5.260;2023-04-03T04:41:31;11.30;;;10.02;;
33268;SDS011;19640;50.944;5.260;2023-04-03T04:43:57;11.32;;;9.95;;
33268;SDS011;19640;50.944;5.260;2023-04-03T04:46:23;10.88;;;9.73;;
33268;SDS011;19640;50.944;5.260;2023-04-03T04:48:49;10.85;;;9.73;;
33268;SDS011;19640;50.944;5.260;2023-04-03T04:51:15;13.77;;;10.45;;
33268;SDS011;19640;50.944;5.260;2023-04-03T04:53:41;11.93;;;10.57;;
33268;SDS011;19640;50.944;5.260;2023-04-03T04:56:07;11.15;;;9.68;;
33268;SDS011;19640;50.944;5.260;2023-04-03T04:58:34;12.82;;;11.00;;
33268;SDS011;19640;50.944;5.260;2023-04-03T05:03:30;14.77;;;10.43;;
33268;SDS011;19640;50.944;5.260;2023-04-03T05:05:56;10.85;;;9.90;;
33268;SDS011;19640;50.944;5.260;2023-04-03T05:08:21;11.68;;;10.57;;
33268;SDS011;19640;50.944;5.260;2023-04-03T05:10:47;12.40;;;11.15;;
33268;SDS011;19640;50.944;5.260;2023-04-03T05:13:13;16.15;;;12.90;;
33268;SDS011;19640;50.944;5.260;2023-04-03T05:15:39;10.50;;;9.57;;
33268;SDS011;19640;50.944;5.260;2023-04-03T05:18:05;16.20;;;14.60;;
33268;SDS011;19640;50.944;5.260;2023-04-03T05:20:31;18.27;;;15.57;;
33268;SDS011;19640;50.944;5.260;2023-04-03T05:22:57;17.27;;;15.48;;
33268;SDS011;19640;50.944;5.260;2023-04-03T05:25:23;15.93;;;14.30;;
33268;SDS011;19640;50.944;5.260;2023-04-03T05:27:49;21.10;;;14.88;;
33268;SDS011;19640;50.944;5.260;2023-04-03T05:30:14;16.50;;;14.45;;
33268;SDS011;19640;50.944;5.260;2023-04-03T05:32:41;21.73;;;15.27;;
33268;SDS011;19640;50.944;5.260;2023-04-03T05:35:07;18.33;;;15.02;;
33268;SDS011;19640;50.944;5.260;2023-04-03T05:37:33;17.17;;;15.15;;
33268;SDS011;19640;50.944;5.260;2023-04-03T05:39:59;16.90;;;15.20;;
33268;SDS011;19640;50.944;5.260;2023-04-03T05:42:25;17.70;;;15.40;;
33268;SDS011;19640;50.944;5.260;2023-04-03T05:44:51;17.00;;;14.65;;
33268;SDS011;19640;50.944;5.260;2023-04-03T05:47:17;17.17;;;15.32;;
33268;SDS011;19640;50.944;5.260;2023-04-03T05:49:44;15.98;;;14.48;;
33268;SDS011;19640;50.944;5.260;2023-04-03T05:52:31;17.85;;;14.10;;
33268;SDS011;19640;50.944;5.260;2023-04-03T05:55:01;18.17;;;13.73;;
33268;SDS011;19640;50.944;5.260;2023-04-03T05:57:26;16.40;;;13.88;;
33268;SDS011;19640;50.944;5.260;2023-04-03T05:59:52;16.83;;;12.70;;
33268;SDS011;19640;50.944;5.260;2023-04-03T06:02:19;14.90;;;12.15;;
33268;SDS011;19640;50.944;5.260;2023-04-03T06:04:46;12.50;;;11.40;;
33268;SDS011;19640;50.944;5.260;2023-04-03T06:07:16;15.82;;;11.82;;
33268;SDS011;19640;50.944;5.260;2023-04-03T06:09:46;11.43;;;10.43;;
33268;SDS011;19640;50.944;5.260;2023-04-03T06:12:12;18.27;;;10.40;;
33268;SDS011;19640;50.944;5.260;2023-04-03T06:14:38;9.95;;;8.98;;
33268;SDS011;19640;50.944;5.260;2023-04-03T06:17:04;12.20;;;9.25;;
33268;SDS011;19640;50.944;5.260;2023-04-03T06:19:31;11.45;;;8.73;;
33268;SDS011;19640;50.944;5.260;2023-04-03T06:21:56;9.65;;;8.65;;
33268;SDS011;19640;50.944;5.260;2023-04-03T06:24:22;13.77;;;8.15;;
33268;SDS011;19640;50.944;5.260;2023-04-03T06:26:49;10.90;;;7.50;;
33268;SDS011;19640;50.944;5.260;2023-04-03T06:29:16;8.05;;;7.25;;
33268;SDS011;19640;50.944;5.260;2023-04-03T06:31:42;7.95;;;7.15;;
33268;SDS011;19640;50.944;5.260;2023-04-03T06:34:08;7.70;;;6.85;;
33268;SDS011;19640;50.944;5.260;2023-04-03T06:36:34;8.02;;;6.10;;
33268;SDS011;19640;50.944;5.260;2023-04-03T06:39:00;8.15;;;6.47;;
33268;SDS011;19640;50.944;5.260;2023-04-03T06:41:27;7.93;;;6.47;;
33268;SDS011;19640;50.944;5.260;2023-04-03T06:43:53;11.90;;;5.88;;
33268;SDS011;19640;50.944;5.260;2023-04-03T06:46:21;6.72;;;6.13;;
33268;SDS011;19640;50.944;5.260;2023-04-03T06:48:48;9.25;;;5.88;;
33268;SDS011;19640;50.944;5.260;2023-04-03T06:51:18;7.85;;;4.97;;
33268;SDS011;19640;50.944;5.260;2023-04-03T06:53:46;7.68;;;5.07;;
33268;SDS011;19640;50.944;5.260;2023-04-03T06:56:13;6.55;;;4.60;;
33268;SDS011;19640;50.944;5.260;2023-04-03T06:58:39;7.13;;;5.35;;
33268;SDS011;19640;50.944;5.260;2023-04-03T07:01:06;7.38;;;4.80;;
33268;SDS011;19640;50.944;5.260;2023-04-03T07:03:33;8.93;;;5.07;;
33268;SDS011;19640;50.944;5.260;2023-04-03T07:05:59;6.65;;;4.90;;
33268;SDS011;19640;50.944;5.260;2023-04-03T07:08:24;7.22;;;5.07;;
33268;SDS011;19640;50.944;5.260;2023-04-03T07:10:51;5.72;;;4.55;;
33268;SDS011;19640;50.944;5.260;2023-04-03T07:13:17;5.10;;;4.47;;
33268;SDS011;19640;50.944;5.260;2023-04-03T07:15:42;7.47;;;4.45;;
33268;SDS011;19640;50.944;5.260;2023-04-03T07:18:08;8.40;;;4.53;;
33268;SDS011;19640;50.944;5.260;2023-04-03T07:20:34;5.53;;;3.80;;
33268;SDS011;19640;50.944;5.260;2023-04-03T07:23:00;13.95;;;4.85;;
33268;SDS011;19640;50.944;5.260;2023-04-03T07:25:27;7.28;;;4.30;;
33268;SDS011;19640;50.944;5.260;2023-04-03T07:27:53;9.82;;;4.30;;
33268;SDS011;19640;50.944;5.260;2023-04-03T07:30:21;6.60;;;4.03;;
33268;SDS011;19640;50.944;5.260;2023-04-03T07:32:48;7.75;;;3.55;;
33268;SDS011;19640;50.944;5.260;2023-04-03T07:35:13;5.70;;;3.70;;
33268;SDS011;19640;50.944;5.260;2023-04-03T07:37:40;3.33;;;2.95;;
33268;SDS011;19640;50.944;5.260;2023-04-03T07:40:06;6.88;;;3.70;;
33268;SDS011;19640;50.944;5.260;2023-04-03T07:42:33;7.97;;;3.45;;
33268;SDS011;19640;50.944;5.260;2023-04-03T07:45:00;5.10;;;3.03;;
33268;SDS011;19640;50.944;5.260;2023-04-03T07:47:26;4.40;;;3.13;;
33268;SDS011;19640;50.944;5.260;2023-04-03T07:49:52;3.75;;;2.40;;
33268;SDS011;19640;50.944;5.260;2023-04-03T07:52:18;4.53;;;3.28;;
33268;SDS011;19640;50.944;5.260;2023-04-03T07:54:43;9.07;;;3.40;;
33268;SDS011;19640;50.944;5.260;2023-04-03T07:57:09;4.75;;;3.10;;
33268;SDS011;19640;50.944;5.260;2023-04-03T07:59:35;5.18;;;3.42;;
33268;SDS011;19640;50.944;5.260;2023-04-03T08:02:01;6.07;;;2.88;;
33268;SDS011;19640;50.944;5.260;2023-04-03T08:04:27;5.80;;;3.03;;
33268;SDS011;19640;50.944;5.260;2023-04-03T08:06:52;7.68;;;2.80;;
33268;SDS011;19640;50.944;5.260;2023-04-03T08:09:18;5.53;;;2.40;;
33268;SDS011;19640;50.944;5.260;2023-04-03T08:11:44;5.18;;;2.30;;
33268;SDS011;19640;50.944;5.260;2023-04-03T08:14:10;3.75;;;2.28;;
33268;SDS011;19640;50.944;5.260;2023-04-03T08:16:41;5.63;;;2.53;;
33268;SDS011;19640;50.944;5.260;2023-04-03T08:19:08;2.97;;;2.33;;
33268;SDS011;19640;50.944;5.260;2023-04-03T08:21:35;4.97;;;2.75;;
33268;SDS011;19640;50.944;5.260;2023-04-03T08:24:01;4.30;;;2.60;;
33268;SDS011;19640;50.944;5.260;2023-04-03T08:26:28;5.45;;;2.38;;
33268;SDS011;19640;50.944;5.260;2023-04-03T08:28:54;5.20;;;2.78;;
33268;SDS011;19640;50.944;5.260;2023-04-03T08:31:19;3.55;;;2.38;;
33268;SDS011;19640;50.944;5.260;2023-04-03T08:33:45;3.95;;;2.47;;
33268;SDS011;19640;50.944;5.260;2023-04-03T08:36:25;6.43;;;2.80;;
33268;SDS011;19640;50.944;5.260;2023-04-03T08:38:52;4.68;;;2.55;;
33268;SDS011;19640;50.944;5.260;2023-04-03T08:41:33;4.15;;;1.92;;
33268;SDS011;19640;50.944;5.260;2023-04-03T08:44:15;4.95;;;2.42;;
33268;SDS011;19640;50.944;5.260;2023-04-03T08:49:48;4.38;;;2.60;;
33268;SDS011;19640;50.944;5.260;2023-04-03T08:52:25;4.95;;;2.10;;
33268;SDS011;19640;50.944;5.260;2023-04-03T08:55:22;3.63;;;2.22;;
33268;SDS011;19640;50.944;5.260;2023-04-03T08:58:04;4.47;;;2.20;;
33268;SDS011;19640;50.944;5.260;2023-04-03T09:00:37;7.43;;;2.58;;
33268;SDS011;19640;50.944;5.260;2023-04-03T09:03:15;3.80;;;2.20;;
33268;SDS011;19640;50.944;5.260;2023-04-03T09:11:05;4.65;;;1.85;;
33268;SDS011;19640;50.944;5.260;2023-04-03T09:21:56;4.18;;;1.52;;
33268;SDS011;19640;50.944;5.260;2023-04-03T09:24:27;5.32;;;1.55;;
33268;SDS011;19640;50.944;5.260;2023-04-03T09:27:01;5.47;;;1.73;;
33268;SDS011;19640;50.944;5.260;2023-04-03T09:29:30;3.45;;;1.65;;
33268;SDS011;19640;50.944;5.260;2023-04-03T09:32:00;3.97;;;1.60;;
33268;SDS011;19640;50.944;5.260;2023-04-03T09:34:31;2.47;;;1.20;;
33268;SDS011;19640;50.944;5.260;2023-04-03T09:37:01;2.70;;;1.83;;
33268;SDS011;19640;50.944;5.260;2023-04-03T09:39:31;4.13;;;1.90;;
33268;SDS011;19640;50.944;5.260;2023-04-03T09:42:20;3.53;;;1.52;;
33268;SDS011;19640;50.944;5.260;2023-04-03T09:47:28;2.28;;;1.17;;
33268;SDS011;19640;50.944;5.260;2023-04-03T09:52:43;3.42;;;1.60;;
33268;SDS011;19640;50.944;5.260;2023-04-03T09:55:14;3.58;;;2.15;;
33268;SDS011;19640;50.944;5.260;2023-04-03T09:57:44;5.47;;;1.98;;
33268;SDS011;19640;50.944;5.260;2023-04-03T10:00:23;4.10;;;1.55;;
33268;SDS011;19640;50.944;5.260;2023-04-03T10:02:57;2.78;;;1.27;;
33268;SDS011;19640;50.944;5.260;2023-04-03T10:10:40;3.53;;;1.05;;
33268;SDS011;19640;50.944;5.260;2023-04-03T10:13:09;3.50;;;1.30;;
33268;SDS011;19640;50.944;5.260;2023-04-03T10:15:50;4.40;;;1.52;;
33268;SDS011;19640;50.944;5.260;2023-04-03T10:21:02;3.72;;;1.45;;
33268;SDS011;19640;50.944;5.260;2023-04-03T10:23:44;1.63;;;1.10;;
33268;SDS011;19640;50.944;5.260;2023-04-03T10:26:37;6.90;;;1.45;;
33268;SDS011;19640;50.944;5.260;2023-04-03T10:37:41;1.85;;;1.15;;
33268;SDS011;19640;50.944;5.260;2023-04-03T10:42:58;7.53;;;1.20;;
33268;SDS011;19640;50.944;5.260;2023-04-03T10:45:49;1.00;;;0.68;;
33268;SDS011;19640;50.944;5.260;2023-04-03T10:53:57;2.38;;;0.90;;
33268;SDS011;19640;50.944;5.260;2023-04-03T10:56:26;2.20;;;0.93;;
33268;SDS011;19640;50.944;5.260;2023-04-03T11:02:48;1.92;;;1.30;;
33268;SDS011;19640;50.944;5.260;2023-04-03T11:04:53;2.78;;;0.90;;
33268;SDS011;19640;50.944;5.260;2023-04-03T11:07:25;1.50;;;0.80;;
33268;SDS011;19640;50.944;5.260;2023-04-03T11:10:03;2.00;;;0.68;;
33268;SDS011;19640;50.944;5.260;2023-04-03T11:15:17;0.70;;;0.50;;
33268;SDS011;19640;50.944;5.260;2023-04-03T11:18:06;1.25;;;0.50;;
33268;SDS011;19640;50.944;5.260;2023-04-03T11:20:41;0.47;;;0.30;;
33268;SDS011;19640;50.944;5.260;2023-04-03T11:23:22;1.83;;;0.70;;
33268;SDS011;19640;50.944;5.260;2023-04-03T11:25:54;1.42;;;0.70;;
33268;SDS011;19640;50.944;5.260;2023-04-03T11:28:26;1.80;;;0.60;;
33268;SDS011;19640;50.944;5.260;2023-04-03T11:33:38;0.85;;;0.40;;
33268;SDS011;19640;50.944;5.260;2023-04-03T11:36:31;2.35;;;0.47;;
33268;SDS011;19640;50.944;5.260;2023-04-03T11:39:00;1.88;;;0.60;;
33268;SDS011;19640;50.944;5.260;2023-04-03T11:41:53;0.50;;;0.50;;
33268;SDS011;19640;50.944;5.260;2023-04-03T11:44:30;1.42;;;0.70;;
33268;SDS011;19640;50.944;5.260;2023-04-03T11:47:03;2.40;;;0.70;;
33268;SDS011;19640;50.944;5.260;2023-04-03T12:05:48;4.00;;;0.80;;
33268;SDS011;19640;50.944;5.260;2023-04-03T12:08:21;0.98;;;0.57;;
33268;SDS011;19640;50.944;5.260;2023-04-03T12:34:48;1.95;;;0.70;;
33268;SDS011;19640;50.944;5.260;2023-04-03T12:45:26;2.55;;;0.80;;
33268;SDS011;19640;50.944;5.260;2023-04-03T12:47:53;1.15;;;0.70;;
33268;SDS011;19640;50.944;5.260;2023-04-03T12:50:32;3.83;;;1.10;;
33268;SDS011;19640;50.944;5.260;2023-04-03T12:53:04;2.10;;;0.95;;
33268;SDS011;19640;50.944;5.260;2023-04-03T12:55:32;3.05;;;1.23;;
33268;SDS011;19640;50.944;5.260;2023-04-03T12:58:12;1.65;;;0.90;;
33268;SDS011;19640;50.944;5.260;2023-04-03T13:00:40;2.55;;;0.90;;
33268;SDS011;19640;50.944;5.260;2023-04-03T13:03:06;1.55;;;0.90;;
33268;SDS011;19640;50.944;5.260;2023-04-03T13:05:44;2.33;;;1.02;;
33268;SDS011;19640;50.944;5.260;2023-04-03T13:08:12;3.95;;;0.85;;
33268;SDS011;19640;50.944;5.260;2023-04-03T13:10:47;2.00;;;1.10;;
33268;SDS011;19640;50.944;5.260;2023-04-03T13:13:14;2.10;;;0.88;;
33268;SDS011;19640;50.944;5.260;2023-04-03T13:15:42;2.38;;;1.15;;
33268;SDS011;19640;50.944;5.260;2023-04-03T13:21:04;4.00;;;1.17;;
33268;SDS011;19640;50.944;5.260;2023-04-03T13:23:40;1.77;;;0.90;;
33268;SDS011;19640;50.944;5.260;2023-04-03T13:26:09;3.47;;;1.52;;
33268;SDS011;19640;50.944;5.260;2023-04-03T13:28:36;3.00;;;1.25;;
33268;SDS011;19640;50.944;5.260;2023-04-03T13:36:22;1.77;;;1.02;;
33268;SDS011;19640;50.944;5.260;2023-04-03T13:39:00;2.08;;;1.20;;
33268;SDS011;19640;50.944;5.260;2023-04-03T13:41:29;1.67;;;0.90;;
33268;SDS011;19640;50.944;5.260;2023-04-03T13:44:15;1.60;;;1.08;;
33268;SDS011;19640;50.944;5.260;2023-04-03T13:46:42;2.78;;;1.17;;
33268;SDS011;19640;50.944;5.260;2023-04-03T13:49:18;2.75;;;0.95;;
33268;SDS011;19640;50.944;5.260;2023-04-03T13:51:54;2.90;;;1.17;;
33268;SDS011;19640;50.944;5.260;2023-04-03T13:54:22;2.47;;;1.05;;
33268;SDS011;19640;50.944;5.260;2023-04-03T13:56:57;2.20;;;1.60;;
33268;SDS011;19640;50.944;5.260;2023-04-03T13:59:28;4.10;;;1.20;;
33268;SDS011;19640;50.944;5.260;2023-04-03T14:04:27;2.30;;;1.35;;
33268;SDS011;19640;50.944;5.260;2023-04-03T14:09:24;2.88;;;1.00;;
33268;SDS011;19640;50.944;5.260;2023-04-03T14:11:52;2.55;;;0.88;;
33268;SDS011;19640;50.944;5.260;2023-04-03T14:14:21;2.85;;;1.00;;
33268;SDS011;19640;50.944;5.260;2023-04-03T14:16:57;2.35;;;1.17;;
33268;SDS011;19640;50.944;5.260;2023-04-03T14:19:32;1.98;;;1.00;;
33268;SDS011;19640;50.944;5.260;2023-04-03T14:22:01;3.08;;;1.15;;
33268;SDS011;19640;50.944;5.260;2023-04-03T14:24:37;3.72;;;1.30;;
33268;SDS011;19640;50.944;5.260;2023-04-03T14:27:05;2.75;;;1.50;;
33268;SDS011;19640;50.944;5.260;2023-04-03T14:29:38;2.42;;;1.27;;
33268;SDS011;19640;50.944;5.260;2023-04-03T14:32:04;2.70;;;0.90;;
33268;SDS011;19640;50.944;5.260;2023-04-03T14:34:31;2.30;;;1.00;;
33268;SDS011;19640;50.944;5.260;2023-04-03T14:36:56;5.30;;;1.33;;
33268;SDS011;19640;50.944;5.260;2023-04-03T14:39:22;1.40;;;0.98;;
33268;SDS011;19640;50.944;5.260;2023-04-03T14:41:48;3.28;;;1.30;;
33268;SDS011;19640;50.944;5.260;2023-04-03T14:44:13;3.05;;;1.05;;
33268;SDS011;19640;50.944;5.260;2023-04-03T14:46:41;2.40;;;1.40;;
33268;SDS011;19640;50.944;5.260;2023-04-03T14:49:15;2.05;;;1.02;;
33268;SDS011;19640;50.944;5.260;2023-04-03T14:51:43;2.78;;;1.10;;
33268;SDS011;19640;50.944;5.260;2023-04-03T14:54:19;2.60;;;1.17;;
33268;SDS011;19640;50.944;5.260;2023-04-03T14:56:50;1.40;;;1.10;;
33268;SDS011;19640;50.944;5.260;2023-04-03T14:59:17;2.83;;;1.20;;
33268;SDS011;19640;50.944;5.260;2023-04-03T15:01:45;6.07;;;1.33;;
33268;SDS011;19640;50.944;5.260;2023-04-03T15:04:15;1.80;;;1.20;;
33268;SDS011;19640;50.944;5.260;2023-04-03T15:06:45;2.17;;;1.00;;
33268;SDS011;19640;50.944;5.260;2023-04-03T15:09:23;2.78;;;1.55;;
33268;SDS011;19640;50.944;5.260;2023-04-03T15:11:50;3.95;;;1.48;;
33268;SDS011;19640;50.944;5.260;2023-04-03T15:14:17;3.65;;;1.50;;
33268;SDS011;19640;50.944;5.260;2023-04-03T15:16:43;2.72;;;1.15;;
33268;SDS011;19640;50.944;5.260;2023-04-03T15:19:09;4.03;;;1.33;;
33268;SDS011;19640;50.944;5.260;2023-04-03T15:21:35;2.65;;;1.30;;
33268;SDS011;19640;50.944;5.260;2023-04-03T15:24:01;2.28;;;1.13;;
33268;SDS011;19640;50.944;5.260;2023-04-03T15:26:27;2.33;;;1.33;;
33268;SDS011;19640;50.944;5.260;2023-04-03T15:28:53;2.90;;;1.17;;
33268;SDS011;19640;50.944;5.260;2023-04-03T15:31:18;2.58;;;1.20;;
33268;SDS011;19640;50.944;5.260;2023-04-03T15:33:44;2.13;;;1.20;;
33268;SDS011;19640;50.944;5.260;2023-04-03T15:36:10;2.42;;;1.13;;
33268;SDS011;19640;50.944;5.260;2023-04-03T15:38:36;2.55;;;0.93;;
33268;SDS011;19640;50.944;5.260;2023-04-03T15:41:03;1.67;;;1.13;;
33268;SDS011;19640;50.944;5.260;2023-04-03T15:43:29;5.40;;;1.02;;
33268;SDS011;19640;50.944;5.260;2023-04-03T15:45:56;5.78;;;1.48;;
33268;SDS011;19640;50.944;5.260;2023-04-03T15:48:23;2.05;;;1.02;;
33268;SDS011;19640;50.944;5.260;2023-04-03T15:50:49;2.50;;;1.05;;
33268;SDS011;19640;50.944;5.260;2023-04-03T15:53:15;2.33;;;1.00;;
33268;SDS011;19640;50.944;5.260;2023-04-03T15:55:40;5.57;;;1.40;;
33268;SDS011;19640;50.944;5.260;2023-04-03T15:58:07;1.85;;;1.05;;
33268;SDS011;19640;50.944;5.260;2023-04-03T16:00:32;3.35;;;1.40;;
33268;SDS011;19640;50.944;5.260;2023-04-03T16:02:59;2.88;;;1.13;;
33268;SDS011;19640;50.944;5.260;2023-04-03T16:05:29;1.80;;;1.13;;
33268;SDS011;19640;50.944;5.260;2023-04-03T16:07:55;2.08;;;1.02;;
33268;SDS011;19640;50.944;5.260;2023-04-03T16:10:22;3.83;;;1.10;;
33268;SDS011;19640;50.944;5.260;2023-04-03T16:12:48;2.13;;;1.02;;
33268;SDS011;19640;50.944;5.260;2023-04-03T16:15:14;2.63;;;1.25;;
33268;SDS011;19640;50.944;5.260;2023-04-03T16:17:40;2.90;;;1.15;;
33268;SDS011;19640;50.944;5.260;2023-04-03T16:20:06;2.28;;;0.80;;
33268;SDS011;19640;50.944;5.260;2023-04-03T16:22:34;2.70;;;1.27;;
33268;SDS011;19640;50.944;5.260;2023-04-03T16:25:00;2.47;;;0.95;;
33268;SDS011;19640;50.944;5.260;2023-04-03T16:27:26;2.05;;;0.90;;
33268;SDS011;19640;50.944;5.260;2023-04-03T16:29:53;1.13;;;0.80;;
33268;SDS011;19640;50.944;5.260;2023-04-03T16:32:20;1.92;;;0.90;;
33268;SDS011;19640;50.944;5.260;2023-04-03T16:34:46;2.30;;;0.82;;
33268;SDS011;19640;50.944;5.260;2023-04-03T16:37:12;3.83;;;1.15;;
33268;SDS011;19640;50.944;5.260;2023-04-03T16:39:38;2.88;;;1.35;;
33268;SDS011;19640;50.944;5.260;2023-04-03T16:42:03;1.88;;;1.08;;
33268;SDS011;19640;50.944;5.260;2023-04-03T16:44:29;7.82;;;1.00;;
33268;SDS011;19640;50.944;5.260;2023-04-03T16:46:55;2.47;;;1.05;;
33268;SDS011;19640;50.944;5.260;2023-04-03T16:49:20;3.85;;;0.98;;
33268;SDS011;19640;50.944;5.260;2023-04-03T16:51:47;2.80;;;1.50;;
33268;SDS011;19640;50.944;5.260;2023-04-03T16:54:13;7.18;;;1.30;;
33268;SDS011;19640;50.944;5.260;2023-04-03T16:56:39;4.07;;;1.25;;
33268;SDS011;19640;50.944;5.260;2023-04-03T16:59:05;2.28;;;1.00;;